sensor_id;sensor_type;location;lat;lon;timestamp;pressure;altitude;pressure_sealevel;temperature;humidity
78741;BME280;68062;48.726;9.370;2023-11-21T00:00:12;98217.81;;;7.07;100.00
78741;BME280;68062;48.726;9.370;2023-11-21T00:02:39;98210.16;;;7.09;100.00
78741;BME280;68062;48.726;9.370;2023-11-21T00:05:07;98205.88;;;7.10;100.00
78741;BME280;68062;48.726;9.370;2023-11-21T00:07:36;98217.84;;;7.15;100.00
78741;BME280;68062;48.726;9.370;2023-11-21T00:10:03;98211.00;;;7.10;100.00
78741;BME280;68062;48.726;9.370;2023-11-21T00:12:31;98205.88;;;7.05;100.00
78741;BME280;68062;48.726;9.370;2023-11-21T00:14:59;98207.59;;;7.07;100.00
78741;BME280;68062;48.726;9.370;2023-11-21T00:17:26;98201.63;;;7.09;100.00
78741;BME280;68062;48.726;9.370;2023-11-21T00:19:52;98205.06;;;7.18;100.00
78741;BME280;68062;48.726;9.370;2023-11-21T00:22:20;98205.06;;;7.12;100.00
78741;BME280;68062;48.726;9.370;2023-11-21T00:24:48;98193.97;;;7.07;100.00
78741;BME280;68062;48.726;9.370;2023-11-21T00:27:14;98186.28;;;7.04;100.00
78741;BME280;68062;48.726;9.370;2023-11-21T00:29:41;98193.16;;;7.20;100.00
78741;BME280;68062;48.726;9.370;2023-11-21T00:32:07;98194.84;;;7.20;100.00
78741;BME280;68062;48.726;9.370;2023-11-21T00:34:35;98189.72;;;7.09;100.00
78741;BME280;68062;48.726;9.370;2023-11-21T00:37:02;98192.25;;;7.06;100.00
78741;BME280;68062;48.726;9.370;2023-11-21T00:39:29;98190.53;;;7.06;100.00
78741;BME280;68062;48.726;9.370;2023-11-21T00:41:59;98191.41;;;7.07;100.00
78741;BME280;68062;48.726;9.370;2023-11-21T00:44:26;98183.72;;;7.04;100.00
78741;BME280;68062;48.726;9.370;2023-11-21T00:46:54;98178.63;;;7.04;100.00
78741;BME280;68062;48.726;9.370;2023-11-21T00:49:23;98178.59;;;7.02;100.00
78741;BME280;68062;48.726;9.370;2023-11-21T00:51:50;98177.72;;;7.00;100.00
78741;BME280;68062;48.726;9.370;2023-11-21T00:54:16;98182.88;;;7.06;100.00
78741;BME280;68062;48.726;9.370;2023-11-21T00:56:43;98182.88;;;7.06;100.00
78741;BME280;68062;48.726;9.370;2023-11-21T00:59:14;98185.44;;;7.10;100.00
78741;BME280;68062;48.726;9.370;2023-11-21T01:01:41;98183.69;;;6.99;100.00
78741;BME280;68062;48.726;9.370;2023-11-21T01:04:08;98190.53;;;7.06;100.00
78741;BME280;68062;48.726;9.370;2023-11-21T01:06:35;98182.84;;;6.99;100.00
78741;BME280;68062;48.726;9.370;2023-11-21T01:09:01;98186.25;;;6.98;100.00
78741;BME280;68062;48.726;9.370;2023-11-21T01:11:33;98183.69;;;6.96;100.00
78741;BME280;68062;48.726;9.370;2023-11-21T01:14:02;98180.28;;;6.97;100.00
78741;BME280;68062;48.726;9.370;2023-11-21T01:16:31;98197.34;;;7.00;100.00
78741;BME280;68062;48.726;9.370;2023-11-21T01:18:59;98188.81;;;6.99;100.00
78741;BME280;68062;48.726;9.370;2023-11-21T01:21:25;98183.69;;;7.02;100.00
78741;BME280;68062;48.726;9.370;2023-11-21T01:23:54;98189.69;;;7.04;100.00
78741;BME280;68062;48.726;9.370;2023-11-21T01:26:23;98183.72;;;7.05;100.00
78741;BME280;68062;48.726;9.370;2023-11-21T01:28:50;98188.00;;;7.10;100.00
78741;BME280;68062;48.726;9.370;2023-11-21T01:31:18;98183.75;;;7.13;100.00
78741;BME280;68062;48.726;9.370;2023-11-21T01:33:47;98174.34;;;7.11;100.00
78741;BME280;68062;48.726;9.370;2023-11-21T01:36:14;98183.72;;;7.12;100.00
78741;BME280;68062;48.726;9.370;2023-11-21T01:38:44;98185.44;;;7.11;100.00
78741;BME280;68062;48.726;9.370;2023-11-21T01:41:11;98176.06;;;7.09;100.00
78741;BME280;68062;48.726;9.370;2023-11-21T01:43:39;98169.25;;;7.09;100.00
78741;BME280;68062;48.726;9.370;2023-11-21T01:46:08;98173.50;;;7.10;100.00
78741;BME280;68062;48.726;9.370;2023-11-21T01:48:35;98171.81;;;7.09;100.00
78741;BME280;68062;48.726;9.370;2023-11-21T01:51:05;98175.22;;;7.14;100.00
78741;BME280;68062;48.726;9.370;2023-11-21T01:53:32;98179.47;;;7.11;100.00
78741;BME280;68062;48.726;9.370;2023-11-21T01:55:59;98179.47;;;7.11;100.00
78741;BME280;68062;48.726;9.370;2023-11-21T01:58:26;98175.22;;;7.14;100.00
78741;BME280;68062;48.726;9.370;2023-11-21T02:00:53;98185.47;;;7.17;100.00
78741;BME280;68062;48.726;9.370;2023-11-21T02:03:21;98173.50;;;7.10;100.00
78741;BME280;68062;48.726;9.370;2023-11-21T02:05:48;98185.47;;;7.17;100.00
78741;BME280;68062;48.726;9.370;2023-11-21T02:08:16;98186.31;;;7.18;100.00
78741;BME280;68062;48.726;9.370;2023-11-21T02:10:44;98181.19;;;7.18;100.00
78741;BME280;68062;48.726;9.370;2023-11-21T02:13:13;98167.53;;;7.08;100.00
78741;BME280;68062;48.726;9.370;2023-11-21T02:15:41;98178.66;;;7.19;100.00
78741;BME280;68062;48.726;9.370;2023-11-21T02:18:08;98179.47;;;7.17;100.00
78741;BME280;68062;48.726;9.370;2023-11-21T02:20:37;98177.78;;;7.19;100.00
78741;BME280;68062;48.726;9.370;2023-11-21T02:23:05;98184.63;;;7.21;100.00
78741;BME280;68062;48.726;9.370;2023-11-21T02:25:33;98180.34;;;7.20;100.00
78741;BME280;68062;48.726;9.370;2023-11-21T02:28:03;98178.66;;;7.19;100.00
78741;BME280;68062;48.726;9.370;2023-11-21T02:30:30;98177.78;;;7.17;100.00
78741;BME280;68062;48.726;9.370;2023-11-21T02:32:57;98173.53;;;7.18;100.00
78741;BME280;68062;48.726;9.370;2023-11-21T02:35:25;98163.28;;;7.12;100.00
78741;BME280;68062;48.726;9.370;2023-11-21T02:37:53;98145.38;;;7.04;100.00
78741;BME280;68062;48.726;9.370;2023-11-21T02:40:21;98150.50;;;7.04;100.00
78741;BME280;68062;48.726;9.370;2023-11-21T02:42:50;98166.72;;;7.15;100.00
78741;BME280;68062;48.726;9.370;2023-11-21T02:45:19;98165.84;;;7.16;100.00
78741;BME280;68062;48.726;9.370;2023-11-21T02:47:46;98160.75;;;7.13;100.00
78741;BME280;68062;48.726;9.370;2023-11-21T02:50:14;98165.00;;;7.14;100.00
78741;BME280;68062;48.726;9.370;2023-11-21T02:52:42;98153.06;;;7.10;100.00
78741;BME280;68062;48.726;9.370;2023-11-21T02:55:09;98164.97;;;7.13;100.00
78741;BME280;68062;48.726;9.370;2023-11-21T02:57:37;98125.75;;;6.95;100.00
78741;BME280;68062;48.726;9.370;2023-11-21T03:00:07;98161.56;;;7.14;100.00
78741;BME280;68062;48.726;9.370;2023-11-21T03:02:35;98162.44;;;7.14;100.00
78741;BME280;68062;48.726;9.370;2023-11-21T03:05:05;98166.72;;;7.20;100.00
78741;BME280;68062;48.726;9.370;2023-11-21T03:07:32;98163.31;;;7.16;100.00
78741;BME280;68062;48.726;9.370;2023-11-21T03:09:59;98166.72;;;7.18;100.00
78741;BME280;68062;48.726;9.370;2023-11-21T03:12:26;98167.56;;;7.19;100.00
78741;BME280;68062;48.726;9.370;2023-11-21T03:14:56;98165.84;;;7.21;100.00
78741;BME280;68062;48.726;9.370;2023-11-21T03:17:24;98167.56;;;7.22;100.00
78741;BME280;68062;48.726;9.370;2023-11-21T03:19:51;98172.69;;;7.22;100.00
78741;BME280;68062;48.726;9.370;2023-11-21T03:22:19;98171.81;;;7.20;100.00
78741;BME280;68062;48.726;9.370;2023-11-21T03:24:46;98176.97;;;7.25;100.00
78741;BME280;68062;48.726;9.370;2023-11-21T03:27:13;98170.13;;;7.25;100.00
78741;BME280;68062;48.726;9.370;2023-11-21T03:29:39;98177.81;;;7.25;100.00
78741;BME280;68062;48.726;9.370;2023-11-21T03:32:08;98176.09;;;7.22;100.00
78741;BME280;68062;48.726;9.370;2023-11-21T03:34:35;98174.38;;;7.20;100.00
78741;BME280;68062;48.726;9.370;2023-11-21T03:37:02;98169.28;;;7.15;100.00
78741;BME280;68062;48.726;9.370;2023-11-21T03:39:28;98173.50;;;7.12;100.00
78741;BME280;68062;48.726;9.370;2023-11-21T03:41:55;98176.06;;;7.10;100.00
78741;BME280;68062;48.726;9.370;2023-11-21T03:44:22;98168.41;;;7.07;100.00
78741;BME280;68062;48.726;9.370;2023-11-21T03:46:51;98170.09;;;7.13;100.00
78741;BME280;68062;48.726;9.370;2023-11-21T03:49:19;98178.63;;;7.13;100.00
78741;BME280;68062;48.726;9.370;2023-11-21T03:51:46;98173.50;;;7.10;100.00
78741;BME280;68062;48.726;9.370;2023-11-21T03:54:14;98177.78;;;7.14;100.00
78741;BME280;68062;48.726;9.370;2023-11-21T03:56:40;98174.38;;;7.12;100.00
78741;BME280;68062;48.726;9.370;2023-11-21T03:59:07;98177.78;;;7.11;100.00
78741;BME280;68062;48.726;9.370;2023-11-21T04:01:34;98175.22;;;7.11;100.00
78741;BME280;68062;48.726;9.370;2023-11-21T04:04:00;98171.81;;;7.12;100.00
78741;BME280;68062;48.726;9.370;2023-11-21T04:06:30;98174.38;;;7.14;100.00
78741;BME280;68062;48.726;9.370;2023-11-21T04:08:58;98169.25;;;7.14;100.00
78741;BME280;68062;48.726;9.370;2023-11-21T04:11:25;98173.50;;;7.12;100.00
78741;BME280;68062;48.726;9.370;2023-11-21T04:13:55;98172.66;;;7.08;100.00
78741;BME280;68062;48.726;9.370;2023-11-21T04:16:22;98174.34;;;7.07;100.00
78741;BME280;68062;48.726;9.370;2023-11-21T04:18:48;98167.53;;;7.08;100.00
78741;BME280;68062;48.726;9.370;2023-11-21T04:21:15;98182.03;;;7.12;100.00
78741;BME280;68062;48.726;9.370;2023-11-21T04:23:44;98180.31;;;7.13;100.00
78741;BME280;68062;48.726;9.370;2023-11-21T04:26:10;98181.19;;;7.12;100.00
78741;BME280;68062;48.726;9.370;2023-11-21T04:28:37;98179.47;;;7.09;100.00
78741;BME280;68062;48.726;9.370;2023-11-21T04:31:04;98180.31;;;7.03;100.00
78741;BME280;68062;48.726;9.370;2023-11-21T04:33:32;98176.06;;;7.18;100.00
78741;BME280;68062;48.726;9.370;2023-11-21T04:35:59;98173.53;;;7.18;100.00
78741;BME280;68062;48.726;9.370;2023-11-21T04:38:26;98195.69;;;7.22;100.00
78741;BME280;68062;48.726;9.370;2023-11-21T04:40:53;98203.31;;;7.10;100.00
78741;BME280;68062;48.726;9.370;2023-11-21T04:43:20;98165.78;;;6.85;100.00
78741;BME280;68062;48.726;9.370;2023-11-21T04:45:47;98168.28;;;6.81;100.00
78741;BME280;68062;48.726;9.370;2023-11-21T04:48:14;98146.09;;;6.62;100.00
78741;BME280;68062;48.726;9.370;2023-11-21T04:50:40;98204.13;;;6.88;100.00
78741;BME280;68062;48.726;9.370;2023-11-21T04:53:07;98192.19;;;6.87;100.00
78741;BME280;68062;48.726;9.370;2023-11-21T04:55:34;98195.59;;;6.88;100.00
78741;BME280;68062;48.726;9.370;2023-11-21T04:58:02;98166.53;;;6.64;100.00
78741;BME280;68062;48.726;9.370;2023-11-21T05:00:29;98194.72;;;6.83;100.00
78741;BME280;68062;48.726;9.370;2023-11-21T05:02:56;98177.69;;;6.85;100.00
78741;BME280;68062;48.726;9.370;2023-11-21T05:05:23;98188.78;;;6.88;100.00
78741;BME280;68062;48.726;9.370;2023-11-21T05:07:53;98200.69;;;6.86;100.00
78741;BME280;68062;48.726;9.370;2023-11-21T05:10:20;98198.97;;;6.76;100.00
78741;BME280;68062;48.726;9.370;2023-11-21T05:12:48;98208.34;;;6.80;100.00
78741;BME280;68062;48.726;9.370;2023-11-21T05:15:17;98203.22;;;6.77;100.00
78741;BME280;68062;48.726;9.370;2023-11-21T05:17:44;98209.16;;;6.77;100.00
78741;BME280;68062;48.726;9.370;2023-11-21T05:20:11;98201.50;;;6.74;100.00
78741;BME280;68062;48.726;9.370;2023-11-21T05:22:39;98202.34;;;6.69;100.00
78741;BME280;68062;48.726;9.370;2023-11-21T05:25:08;98210.00;;;6.73;100.00
78741;BME280;68062;48.726;9.370;2023-11-21T05:27:34;98233.00;;;6.70;100.00
78741;BME280;68062;48.726;9.370;2023-11-21T05:30:01;98220.22;;;6.70;100.00
78741;BME280;68062;48.726;9.370;2023-11-21T05:32:32;98223.63;;;6.71;100.00
78741;BME280;68062;48.726;9.370;2023-11-21T05:34:59;98221.91;;;6.68;100.00
78741;BME280;68062;48.726;9.370;2023-11-21T05:37:26;98230.41;;;6.64;100.00
78741;BME280;68062;48.726;9.370;2023-11-21T05:40:01;98229.56;;;6.65;100.00
78741;BME280;68062;48.726;9.370;2023-11-21T05:42:31;98236.38;;;6.66;100.00
78741;BME280;68062;48.726;9.370;2023-11-21T05:44:57;98243.22;;;6.69;100.00
78741;BME280;68062;48.726;9.370;2023-11-21T05:47:38;98237.25;;;6.71;100.00
78741;BME280;68062;48.726;9.370;2023-11-21T05:50:07;98209.09;;;6.57;100.00
78741;BME280;68062;48.726;9.370;2023-11-21T05:52:38;98232.09;;;6.65;100.00
78741;BME280;68062;48.726;9.370;2023-11-21T05:55:06;98240.69;;;6.76;100.00
78741;BME280;68062;48.726;9.370;2023-11-21T05:57:33;98236.38;;;6.69;100.00
78741;BME280;68062;48.726;9.370;2023-11-21T06:00:03;98242.44;;;6.82;100.00
78741;BME280;68062;48.726;9.370;2023-11-21T06:02:38;98240.72;;;6.78;100.00
78741;BME280;68062;48.726;9.370;2023-11-21T06:05:06;98241.53;;;6.75;100.00
78741;BME280;68062;48.726;9.370;2023-11-21T06:07:33;98253.50;;;6.78;100.00
78741;BME280;68062;48.726;9.370;2023-11-21T06:10:01;98247.50;;;6.73;100.00
78741;BME280;68062;48.726;9.370;2023-11-21T06:12:31;98250.03;;;6.71;100.00
78741;BME280;68062;48.726;9.370;2023-11-21T06:15:01;98250.91;;;6.72;100.00
78741;BME280;68062;48.726;9.370;2023-11-21T06:17:29;98251.69;;;6.66;100.00
78741;BME280;68062;48.726;9.370;2023-11-21T06:19:59;98255.94;;;6.64;100.00
78741;BME280;68062;48.726;9.370;2023-11-21T06:22:26;98259.38;;;6.60;100.00
78741;BME280;68062;48.726;9.370;2023-11-21T06:24:53;98266.13;;;6.56;100.00
78741;BME280;68062;48.726;9.370;2023-11-21T06:27:19;98266.13;;;6.56;100.00
78741;BME280;68062;48.726;9.370;2023-11-21T06:29:46;98270.44;;;6.59;100.00
78741;BME280;68062;48.726;9.370;2023-11-21T06:32:13;98269.56;;;6.63;100.00
78741;BME280;68062;48.726;9.370;2023-11-21T06:34:41;98277.28;;;6.68;100.00
78741;BME280;68062;48.726;9.370;2023-11-21T06:37:09;98239.59;;;6.36;100.00
78741;BME280;68062;48.726;9.370;2023-11-21T06:39:37;98274.69;;;6.66;100.00
78741;BME280;68062;48.726;9.370;2023-11-21T06:42:04;98275.59;;;6.71;100.00
78741;BME280;68062;48.726;9.370;2023-11-21T06:44:31;98267.88;;;6.65;100.00
78741;BME280;68062;48.726;9.370;2023-11-21T06:47:01;98288.38;;;6.73;100.00
78741;BME280;68062;48.726;9.370;2023-11-21T06:49:28;98290.16;;;6.85;100.00
78741;BME280;68062;48.726;9.370;2023-11-21T06:51:56;98285.91;;;6.88;100.00
78741;BME280;68062;48.726;9.370;2023-11-21T06:54:26;98288.44;;;6.82;100.00
78741;BME280;68062;48.726;9.370;2023-11-21T06:56:53;98291.88;;;6.84;100.00
78741;BME280;68062;48.726;9.370;2023-11-21T06:59:22;98287.53;;;6.74;100.00
78741;BME280;68062;48.726;9.370;2023-11-21T07:01:49;98298.63;;;6.77;100.00
78741;BME280;68062;48.726;9.370;2023-11-21T07:04:16;98301.19;;;6.77;100.00
78741;BME280;68062;48.726;9.370;2023-11-21T07:06:44;98307.16;;;6.78;100.00
78741;BME280;68062;48.726;9.370;2023-11-21T07:09:11;98311.44;;;6.79;100.00
78741;BME280;68062;48.726;9.370;2023-11-21T07:11:39;98312.28;;;6.83;100.00
78741;BME280;68062;48.726;9.370;2023-11-21T07:14:07;98319.97;;;6.86;100.00
78741;BME280;68062;48.726;9.370;2023-11-21T07:16:34;98316.59;;;6.90;100.00
78741;BME280;68062;48.726;9.370;2023-11-21T07:19:03;98310.66;;;6.94;100.00
78741;BME280;68062;48.726;9.370;2023-11-21T07:21:31;98316.66;;;6.98;100.00
78741;BME280;68062;48.726;9.370;2023-11-21T07:23:59;98316.66;;;7.05;100.00
78741;BME280;68062;48.726;9.370;2023-11-21T07:26:26;98323.53;;;7.13;100.00
78741;BME280;68062;48.726;9.370;2023-11-21T07:28:55;98325.28;;;7.18;100.00
78741;BME280;68062;48.726;9.370;2023-11-21T07:31:22;98331.25;;;7.25;100.00
78741;BME280;68062;48.726;9.370;2023-11-21T07:33:50;98330.41;;;7.26;100.00
78741;BME280;68062;48.726;9.370;2023-11-21T07:36:18;98338.09;;;7.28;100.00
78741;BME280;68062;48.726;9.370;2023-11-21T07:38:46;98326.19;;;7.34;100.00
78741;BME280;68062;48.726;9.370;2023-11-21T07:41:14;98335.59;;;7.42;100.00
78741;BME280;68062;48.726;9.370;2023-11-21T07:43:41;98332.22;;;7.49;100.00
78741;BME280;68062;48.726;9.370;2023-11-21T07:46:10;98338.22;;;7.59;100.00
78741;BME280;68062;48.726;9.370;2023-11-21T07:48:37;98325.41;;;7.57;100.00
78741;BME280;68062;48.726;9.370;2023-11-21T07:51:05;98334.00;;;7.75;100.00
78741;BME280;68062;48.726;9.370;2023-11-21T07:53:32;98345.97;;;7.88;100.00
78741;BME280;68062;48.726;9.370;2023-11-21T07:56:04;98350.25;;;8.00;100.00
78741;BME280;68062;48.726;9.370;2023-11-21T07:58:31;98353.72;;;8.10;100.00
78741;BME280;68062;48.726;9.370;2023-11-21T08:01:02;98352.00;;;8.15;100.00
78741;BME280;68062;48.726;9.370;2023-11-21T08:03:30;98358.84;;;8.22;100.00
78741;BME280;68062;48.726;9.370;2023-11-21T08:05:57;98356.28;;;8.24;100.00
78741;BME280;68062;48.726;9.370;2023-11-21T08:08:25;98357.97;;;8.22;100.00
78741;BME280;68062;48.726;9.370;2023-11-21T08:10:53;98357.13;;;8.17;100.00
78741;BME280;68062;48.726;9.370;2023-11-21T08:13:23;98361.38;;;8.12;100.00
78741;BME280;68062;48.726;9.370;2023-11-21T08:15:50;98355.41;;;8.06;100.00
78741;BME280;68062;48.726;9.370;2023-11-21T08:18:20;98363.97;;;8.13;100.00
78741;BME280;68062;48.726;9.370;2023-11-21T08:20:48;98364.78;;;8.07;100.00
78741;BME280;68062;48.726;9.370;2023-11-21T08:23:14;98368.22;;;8.14;100.00
78741;BME280;68062;48.726;9.370;2023-11-21T08:25:43;98360.53;;;8.08;100.00
78741;BME280;68062;48.726;9.370;2023-11-21T08:28:10;98368.22;;;8.08;100.00
78741;BME280;68062;48.726;9.370;2023-11-21T08:30:37;98369.94;;;8.12;100.00
78741;BME280;68062;48.726;9.370;2023-11-21T08:33:04;98374.19;;;8.08;100.00
78741;BME280;68062;48.726;9.370;2023-11-21T08:35:31;98370.78;;;8.14;100.00
78741;BME280;68062;48.726;9.370;2023-11-21T08:37:59;98369.03;;;8.05;100.00
78741;BME280;68062;48.726;9.370;2023-11-21T08:40:26;98375.91;;;8.14;100.00
78741;BME280;68062;48.726;9.370;2023-11-21T08:42:53;98387.88;;;8.28;100.00
78741;BME280;68062;48.726;9.370;2023-11-21T08:45:20;98385.28;;;8.14;100.00
78741;BME280;68062;48.726;9.370;2023-11-21T08:47:47;98375.91;;;8.17;100.00
78741;BME280;68062;48.726;9.370;2023-11-21T08:50:15;98381.88;;;8.04;100.00
78741;BME280;68062;48.726;9.370;2023-11-21T08:52:42;98381.00;;;8.00;100.00
78741;BME280;68062;48.726;9.370;2023-11-21T08:55:10;98374.19;;;8.07;100.00
78741;BME280;68062;48.726;9.370;2023-11-21T08:57:38;98383.56;;;8.02;100.00
78741;BME280;68062;48.726;9.370;2023-11-21T09:00:07;98380.16;;;7.92;100.00
78741;BME280;68062;48.726;9.370;2023-11-21T09:02:37;98384.38;;;7.88;100.00
78741;BME280;68062;48.726;9.370;2023-11-21T09:05:04;98387.81;;;7.86;100.00
78741;BME280;68062;48.726;9.370;2023-11-21T09:07:31;98400.63;;;7.95;100.00
78741;BME280;68062;48.726;9.370;2023-11-21T09:10:01;98400.63;;;8.07;100.00
78741;BME280;68062;48.726;9.370;2023-11-21T09:12:29;98397.28;;;8.19;100.00
78741;BME280;68062;48.726;9.370;2023-11-21T09:14:58;98386.16;;;8.22;100.00
78741;BME280;68062;48.726;9.370;2023-11-21T09:17:25;98401.56;;;8.47;100.00
78741;BME280;68062;48.726;9.370;2023-11-21T09:19:54;98406.75;;;8.58;100.00
78741;BME280;68062;48.726;9.370;2023-11-21T09:22:22;98399.06;;;8.76;100.00
78741;BME280;68062;48.726;9.370;2023-11-21T09:24:50;98406.75;;;8.92;100.00
78741;BME280;68062;48.726;9.370;2023-11-21T09:27:17;98382.81;;;8.87;100.00
78741;BME280;68062;48.726;9.370;2023-11-21T09:29:45;98405.88;;;9.02;100.00
78741;BME280;68062;48.726;9.370;2023-11-21T09:32:14;98410.13;;;9.05;100.00
78741;BME280;68062;48.726;9.370;2023-11-21T09:34:44;98403.28;;;9.10;100.00
78741;BME280;68062;48.726;9.370;2023-11-21T09:37:10;98407.53;;;9.17;100.00
78741;BME280;68062;48.726;9.370;2023-11-21T09:39:37;98400.69;;;9.25;100.00
78741;BME280;68062;48.726;9.370;2023-11-21T09:42:08;98407.47;;;9.37;100.00
78741;BME280;68062;48.726;9.370;2023-11-21T09:44:43;98408.31;;;9.52;100.00
78741;BME280;68062;48.726;9.370;2023-11-21T09:47:17;98407.41;;;9.70;100.00
78741;BME280;68062;48.726;9.370;2023-11-21T09:49:47;98408.13;;;9.95;100.00
78741;BME280;68062;48.726;9.370;2023-11-21T09:52:20;98387.53;;;10.01;100.00
78741;BME280;68062;48.726;9.370;2023-11-21T09:54:51;98411.25;;;10.55;100.00
78741;BME280;68062;48.726;9.370;2023-11-21T09:57:19;98417.47;;;11.26;100.00
78741;BME280;68062;48.726;9.370;2023-11-21T09:59:49;98407.69;;;11.59;100.00
78741;BME280;68062;48.726;9.370;2023-11-21T10:02:19;98405.75;;;11.76;100.00
78741;BME280;68062;48.726;9.370;2023-11-21T10:04:47;98413.03;;;12.12;100.00
78741;BME280;68062;48.726;9.370;2023-11-21T10:07:16;98414.00;;;13.16;99.59
78741;BME280;68062;48.726;9.370;2023-11-21T10:09:44;98409.94;;;13.94;95.12
78741;BME280;68062;48.726;9.370;2023-11-21T10:12:11;98421.66;;;13.68;90.89
78741;BME280;68062;48.726;9.370;2023-11-21T10:14:41;98421.09;;;13.53;89.44
78741;BME280;68062;48.726;9.370;2023-11-21T10:17:10;98417.56;;;13.09;92.14
78741;BME280;68062;48.726;9.370;2023-11-21T10:19:40;98425.72;;;12.84;93.72
78741;BME280;68062;48.726;9.370;2023-11-21T10:22:08;98417.59;;;12.54;95.09
78741;BME280;68062;48.726;9.370;2023-11-21T10:24:35;98410.25;;;12.28;97.28
78741;BME280;68062;48.726;9.370;2023-11-21T10:27:04;98398.59;;;11.99;98.63
78741;BME280;68062;48.726;9.370;2023-11-21T10:29:30;98422.66;;;12.01;100.00
78741;BME280;68062;48.726;9.370;2023-11-21T10:32:02;98424.47;;;11.91;100.00
78741;BME280;68062;48.726;9.370;2023-11-21T10:34:29;98413.47;;;11.76;100.00
78741;BME280;68062;48.726;9.370;2023-11-21T10:36:59;98420.56;;;11.57;100.00
78741;BME280;68062;48.726;9.370;2023-11-21T10:39:38;98415.66;;;11.36;100.00
78741;BME280;68062;48.726;9.370;2023-11-21T10:42:08;98406.47;;;11.10;100.00
78741;BME280;68062;48.726;9.370;2023-11-21T10:44:34;98428.88;;;11.00;100.00
78741;BME280;68062;48.726;9.370;2023-11-21T10:47:02;98407.59;;;10.79;100.00
78741;BME280;68062;48.726;9.370;2023-11-21T10:49:30;98422.25;;;10.71;100.00
78741;BME280;68062;48.726;9.370;2023-11-21T10:51:59;98420.63;;;10.60;100.00
78741;BME280;68062;48.726;9.370;2023-11-21T10:54:26;98429.25;;;10.52;100.00
78741;BME280;68062;48.726;9.370;2023-11-21T10:56:56;98429.31;;;10.42;100.00
78741;BME280;68062;48.726;9.370;2023-11-21T10:59:25;98428.47;;;10.40;100.00
78741;BME280;68062;48.726;9.370;2023-11-21T11:01:53;98429.34;;;10.33;100.00
78741;BME280;68062;48.726;9.370;2023-11-21T11:04:22;98427.66;;;10.29;100.00
78741;BME280;68062;48.726;9.370;2023-11-21T11:06:52;98431.94;;;10.30;100.00
78741;BME280;68062;48.726;9.370;2023-11-21T11:09:23;98420.84;;;10.25;100.00
78741;BME280;68062;48.726;9.370;2023-11-21T11:11:51;98424.25;;;10.27;100.00
78741;BME280;68062;48.726;9.370;2023-11-21T11:14:18;98420.84;;;10.20;100.00
78741;BME280;68062;48.726;9.370;2023-11-21T11:16:45;98419.28;;;9.91;100.00
78741;BME280;68062;48.726;9.370;2023-11-21T11:19:12;98426.22;;;9.72;100.00
78741;BME280;68062;48.726;9.370;2023-11-21T11:21:47;98428.78;;;9.67;100.00
78741;BME280;68062;48.726;9.370;2023-11-21T11:24:36;98429.69;;;9.54;100.00
78741;BME280;68062;48.726;9.370;2023-11-21T11:27:14;98429.72;;;9.52;100.00
78741;BME280;68062;48.726;9.370;2023-11-21T11:29:48;98428.88;;;9.36;100.00
78741;BME280;68062;48.726;9.370;2023-11-21T11:32:24;98428.88;;;9.30;100.00
78741;BME280;68062;48.726;9.370;2023-11-21T11:35:01;98426.34;;;9.22;100.00
78741;BME280;68062;48.726;9.370;2023-11-21T11:37:30;98431.50;;;9.07;100.00
78741;BME280;68062;48.726;9.370;2023-11-21T11:39:59;98424.69;;;8.86;100.00
78741;BME280;68062;48.726;9.370;2023-11-21T11:42:26;98434.09;;;8.80;100.00
78741;BME280;68062;48.726;9.370;2023-11-21T11:44:55;98439.19;;;8.60;100.00
78741;BME280;68062;48.726;9.370;2023-11-21T11:47:24;98442.53;;;8.31;100.00
78741;BME280;68062;48.726;9.370;2023-11-21T11:50:02;98445.06;;;8.11;100.00
78741;BME280;68062;48.726;9.370;2023-11-21T11:52:37;98427.06;;;7.89;100.00
78741;BME280;68062;48.726;9.370;2023-11-21T11:55:08;98427.06;;;7.85;100.00
78741;BME280;68062;48.726;9.370;2023-11-21T11:57:41;98445.88;;;8.02;100.00
78741;BME280;68062;48.726;9.370;2023-11-21T12:00:10;98435.56;;;7.79;100.00
78741;BME280;68062;48.726;9.370;2023-11-21T12:02:38;98441.53;;;7.81;100.00
78741;BME280;68062;48.726;9.370;2023-11-21T12:05:09;98450.97;;;7.87;100.00
78741;BME280;68062;48.726;9.370;2023-11-21T12:07:48;98446.72;;;7.92;100.00
78741;BME280;68062;48.726;9.370;2023-11-21T12:10:18;98444.16;;;8.00;100.00
78741;BME280;68062;48.726;9.370;2023-11-21T12:12:46;98451.91;;;8.12;100.00
78741;BME280;68062;48.726;9.370;2023-11-21T12:15:13;98446.78;;;8.20;100.00
78741;BME280;68062;48.726;9.370;2023-11-21T12:17:41;98452.78;;;8.28;100.00
78741;BME280;68062;48.726;9.370;2023-11-21T12:20:10;98451.09;;;8.29;100.00
78741;BME280;68062;48.726;9.370;2023-11-21T12:22:45;98439.13;;;8.29;100.00
78741;BME280;68062;48.726;9.370;2023-11-21T12:25:18;98446.84;;;8.40;100.00
78741;BME280;68062;48.726;9.370;2023-11-21T12:27:45;98437.44;;;8.36;100.00
78741;BME280;68062;48.726;9.370;2023-11-21T12:30:16;98455.44;;;8.51;100.00
78741;BME280;68062;48.726;9.370;2023-11-21T12:32:45;98450.31;;;8.64;100.00
78741;BME280;68062;48.726;9.370;2023-11-21T12:35:12;98452.88;;;8.81;100.00
78741;BME280;68062;48.726;9.370;2023-11-21T12:37:40;98455.44;;;9.00;100.00
78741;BME280;68062;48.726;9.370;2023-11-21T12:40:09;98458.00;;;9.23;100.00
78741;BME280;68062;48.726;9.370;2023-11-21T12:42:39;98444.31;;;9.28;100.00
78741;BME280;68062;48.726;9.370;2023-11-21T12:45:12;98457.09;;;9.50;100.00
78741;BME280;68062;48.726;9.370;2023-11-21T12:47:49;98463.03;;;9.65;100.00
78741;BME280;68062;48.726;9.370;2023-11-21T12:50:19;98470.69;;;9.80;100.00
78741;BME280;68062;48.726;9.370;2023-11-21T12:52:49;98469.78;;;9.97;100.00
78741;BME280;68062;48.726;9.370;2023-11-21T12:55:17;98466.22;;;10.29;100.00
78741;BME280;68062;48.726;9.370;2023-11-21T12:57:45;98461.50;;;10.95;100.00
78741;BME280;68062;48.726;9.370;2023-11-21T13:00:13;98449.97;;;12.13;100.00
78741;BME280;68062;48.726;9.370;2023-11-21T13:02:55;98455.28;;;13.16;100.00
78741;BME280;68062;48.726;9.370;2023-11-21T13:05:24;98453.81;;;13.53;100.00